Mayo 2004

Fecha / Hora Temperatura (*F) Dew Point (*F) Humedad Relativa (%)
5/1/2004 0:25 62.17 18.1 17.9
5/1/2004 0:55 60.11 19.9 20.8
5/1/2004 1:25 60.8 19.54 20
5/1/2004 1:55 61.48 20.12 20
5/1/2004 2:25 60.11 19.44 20.4
5/1/2004 2:55 58.73 20.68 22.6
5/1/2004 3:25 58.73 21.1 23
5/1/2004 3:55 56.66 20.74 24.4
5/1/2004 4:25 56.66 21.12 24.8
5/1/2004 4:55 59.42 20.74 22.1
5/1/2004 5:25 67.65 19.64 15.8
5/1/2004 5:55 70.39 20.62 15
5/1/2004 6:25 72.46 19.78 13.5
5/1/2004 6:55 75.22 21.26 13.1
5/1/2004 7:25 75.92 23.2 13.9
5/1/2004 7:55 76.62 22.34 13.1
5/1/2004 8:25 77.31 22.16 12.7
5/1/2004 8:55 78.71 22.68 12.4
5/1/2004 9:25 79.41 22.46 12
5/1/2004 9:55 80.82 23.54 12
5/1/2004 10:25 80.82 23.54 12
5/1/2004 10:55 81.53 22.66 11.3
5/1/2004 11:25 82.95 24.38 11.6
5/1/2004 11:55 83.67 24.94 11.6
5/1/2004 12:25 83.67 25.74 12
5/1/2004 12:55 83.67 24.94 11.6
5/1/2004 13:25 83.67 24.3 11.3
5/1/2004 13:55 83.67 24.3 11.3
5/1/2004 14:25 82.95 24.38 11.6
5/1/2004 14:55 83.67 24.94 11.6
5/1/2004 15:25 82.95 23.76 11.3
5/1/2004 15:55 82.95 23.76 11.3
5/1/2004 16:25 82.24 23.22 11.3
5/1/2004 16:55 82.24 24.64 12
5/1/2004 17:25 80.82 23.54 12
5/1/2004 17:55 79.41 23.24 12.4
5/1/2004 18:25 78.71 22.68 12.4
5/1/2004 18:55 78.01 22.14 12.4
5/1/2004 19:25 78.01 22.14 12.4
5/1/2004 19:55 77.31 21.6 12.4
5/1/2004 20:25 78.01 22.7 12.7
5/1/2004 20:55 78.01 24.16 13.5
5/1/2004 21:25 78.71 23.98 13.1
5/1/2004 21:55 78.71 23.98 13.1
5/1/2004 22:25 78.71 24.7 13.5
5/1/2004 22:55 78.71 24.7 13.5
5/1/2004 23:25 78.01 24.16 13.5
5/1/2004 23:55 78.71 23.98 13.1
5/2/2004 0:25 78.01 23.44 13.1
5/2/2004 0:55 78.01 23.44 13.1
5/2/2004 1:25 78.01 24.16 13.5
5/2/2004 1:55 78.01 24.16 13.5
5/2/2004 2:25 77.31 24.98 14.3
5/2/2004 2:55 77.31 24.3 13.9
5/2/2004 3:25 77.31 23.6 13.5
5/2/2004 3:55 77.31 23.6 13.5
5/2/2004 4:25 78.01 23.44 13.1
5/2/2004 4:55 77.31 22.9 13.1
5/2/2004 5:25 77.31 22.16 12.7
5/2/2004 5:55 77.31 21.6 12.4
5/2/2004 6:25 79.41 20.2 10.9
5/2/2004 6:55 81.53 20.26 10.2
5/2/2004 7:25 81.53 18.6 9.5
5/2/2004 7:55 82.95 19.68 9.5
5/2/2004 8:25 83.67 18.42 8.8
5/2/2004 8:55 84.38 19.74 9.1
5/2/2004 9:25 84.38 17.04 8.1
5/2/2004 9:55 85.83 18.1 8.1
5/2/2004 10:25 87.28 20.3 8.5
5/2/2004 10:55 87.28 20.3 8.5
5/2/2004 11:25 88.74 20.26 8.1
5/2/2004 11:55 89.48 19 7.5
5/2/2004 12:25 90.22 18.6 7.2
5/2/2004 12:55 90.22 17.6 6.9
5/2/2004 13:25 90.96 16.76 6.5
5/2/2004 13:55 90.22 15.16 6.2
5/2/2004 14:25 90.96 15.68 6.2
5/2/2004 14:55 90.22 15.16 6.2
5/2/2004 15:25 90.22 14.02 5.9
5/2/2004 15:55 89.48 13.5 5.9
5/2/2004 16:25 88.74 12.98 5.9
5/2/2004 16:55 88.01 13.58 6.2
5/2/2004 17:25 87.28 14.12 6.5
5/2/2004 17:55 85.83 14.42 6.9
5/2/2004 18:25 84.38 14.34 7.2
5/2/2004 18:55 84.38 15.28 7.5
5/2/2004 19:25 83.67 14.76 7.5
5/2/2004 19:55 83.67 14.76 7.5
5/2/2004 20:25 83.67 14.76 7.5
5/2/2004 20:55 83.67 16.52 8.1
5/2/2004 21:25 83.67 16.52 8.1
5/2/2004 21:55 83.67 15.64 7.8
5/2/2004 22:25 83.67 13.82 7.2
5/2/2004 22:55 82.24 12.78 7.2
5/2/2004 23:25 82.24 12.78 7.2
5/2/2004 23:55 82.24 12.78 7.2
5/3/2004 0:25 74.53 17.28 11.3
5/3/2004 0:55 72.46 17.06 12
5/3/2004 1:25 73.84 16.74 11.3
5/3/2004 1:55 74.53 17.88 11.6
5/3/2004 2:25 75.22 16.98 10.9
5/3/2004 2:55 78.71 14.72 8.8
5/3/2004 3:25 78.01 14.96 9.1
5/3/2004 3:55 78.01 15.94 9.5
5/3/2004 4:25 78.01 14.96 9.1
5/3/2004 4:55 78.01 15.94 9.5
5/3/2004 5:25 78.71 15.48 9.1
5/3/2004 5:55 78.71 16.48 9.5
5/3/2004 6:25 81.53 17.6 9.1
5/3/2004 6:55 84.38 19.74 9.1
5/3/2004 7:25 85.83 19.22 8.5
5/3/2004 7:55 86.55 18.64 8.1
5/3/2004 8:25 87.28 20.3 8.5
5/3/2004 8:55 89.48 17.08 6.9
5/3/2004 9:25 90.22 15.16 6.2
5/3/2004 9:55 90.96 10.82 5
5/3/2004 10:25 93.21 10.02 4.5
5/3/2004 10:55 94.73 13.44 5
5/3/2004 11:25 93.97 12.92 5
5/3/2004 11:55 93.97 15.48 5.6
5/3/2004 12:25 94.73 14.76 5.3
5/3/2004 12:55 95.49 13.98 5
5/3/2004 13:25 95.49 13.98 5
5/3/2004 13:55 94.73 14.76 5.3
5/3/2004 14:25 94.73 14.76 5.3
5/3/2004 14:55 94.73 16.02 5.6
5/3/2004 15:25 94.73 14.76 5.3
5/3/2004 15:55 93.97 17.82 6.2
5/3/2004 16:25 93.97 10.56 4.5
5/3/2004 16:55 92.46 13.18 5.3
5/3/2004 17:25 90.96 15.68 6.2
5/3/2004 17:55 89.48 15.7 6.5
5/3/2004 18:25 87.28 16.46 7.2
5/3/2004 18:55 85.1 16.7 7.8
5/3/2004 19:25 83.67 16.52 8.1
5/3/2004 19:55 80.12 16.54 9.1
5/3/2004 20:25 78.71 17.18 9.8
5/3/2004 20:55 76.62 17.18 10.5
5/3/2004 21:25 75.92 17.52 10.9
5/3/2004 21:55 74.53 17.88 11.6
5/3/2004 22:25 73.84 18.14 12
5/3/2004 22:55 71.77 17.84 12.7
5/3/2004 23:25 71.77 17.84 12.7
5/3/2004 23:55 71.08 18 13.1
5/4/2004 0:25 70.39 18.16 13.5
5/4/2004 0:55 69.71 18.3 13.9
5/4/2004 1:25 69.02 18.42 14.3
5/4/2004 1:55 68.33 18.34 14.6
5/4/2004 2:25 67.65 18.42 15
5/4/2004 2:55 67.65 18.42 15
5/4/2004 3:25 66.28 18.54 15.8
5/4/2004 3:55 66.28 17.94 15.4
5/4/2004 4:25 64.91 18.02 16.2
5/4/2004 4:55 64.91 18.02 16.2
5/4/2004 5:25 64.91 18.02 16.2
5/4/2004 5:55 66.96 19.08 15.8
5/4/2004 6:25 72.46 19.78 13.5
5/4/2004 6:55 80.82 20.4 10.5
5/4/2004 7:25 81.53 17.6 9.1
5/4/2004 7:55 85.1 13.9 6.9
5/4/2004 8:25 88.01 14.64 6.5
5/4/2004 8:55 89.48 13.5 5.9
5/4/2004 9:25 90.96 13.36 5.6
5/4/2004 9:55 91.71 15.08 5.9
5/4/2004 10:25 93.21 13.7 5.3
5/4/2004 10:55 93.21 13.7 5.3
5/4/2004 11:25 94.73 16.02 5.6
5/4/2004 11:55 95.49 16.56 5.6
5/4/2004 12:25 96.26 14.52 5
5/4/2004 12:55 95.49 16.56 5.6
5/4/2004 13:25 96.26 14.52 5
5/4/2004 13:55 95.49 15.3 5.3
5/4/2004 14:25 94.73 14.76 5.3
5/4/2004 14:55 93.97 15.48 5.6
5/4/2004 15:25 93.97 16.68 5.9
5/4/2004 15:55 93.21 17.28 6.2
5/4/2004 16:25 92.46 14.42 5.6
5/4/2004 16:55 91.71 13.9 5.6
5/4/2004 17:25 90.22 15.16 6.2
5/4/2004 17:55 88.74 15.18 6.5
5/4/2004 18:25 86.55 15.92 7.2
5/4/2004 18:55 84.38 18.16 8.5
5/4/2004 19:25 82.24 21.48 10.5
5/4/2004 19:55 81.53 17.6 9.1
5/4/2004 20:25 80.12 18.26 9.8
5/4/2004 20:55 77.31 17.72 10.5
5/4/2004 21:25 77.31 18.58 10.9
5/4/2004 21:55 74.53 18.66 12
5/4/2004 22:25 73.15 19.64 13.1
5/4/2004 22:55 71.77 19.24 13.5
5/4/2004 23:25 70.39 19.5 14.3
5/4/2004 23:55 69.71 19.44 14.6
5/5/2004 0:25 69.02 19.52 15
5/5/2004 0:55 67.65 19.04 15.4
5/5/2004 1:25 68.33 18.34 14.6
5/5/2004 1:55 68.33 17.86 14.3
5/5/2004 2:25 67.65 17.32 14.3
5/5/2004 2:55 65.59 17.4 15.4
5/5/2004 3:25 64.91 16.84 15.4
5/5/2004 3:55 65.59 17.4 15.4
5/5/2004 4:25 65.59 16.78 15
5/5/2004 4:55 64.91 18.02 16.2
5/5/2004 5:25 64.22 18.58 17
5/5/2004 5:55 65.59 19.12 16.6
5/5/2004 6:25 72.46 19.78 13.5
5/5/2004 6:55 80.12 19.86 10.5
5/5/2004 7:25 80.82 18.06 9.5
5/5/2004 7:55 82.95 15.12 7.8
5/5/2004 8:25 85.1 18.7 8.5
5/5/2004 8:55 87.28 15.48 6.9
5/5/2004 9:25 88.01 14.64 6.5
5/5/2004 9:55 88.74 15.18 6.5
5/5/2004 10:25 89.48 18.06 7.2
5/5/2004 10:55 90.96 18.14 6.9
5/5/2004 11:25 91.71 17.3 6.5
5/5/2004 11:55 93.21 22.66 7.8
5/5/2004 12:25 93.21 20.76 7.2
5/5/2004 12:55 93.97 23.2 7.8
5/5/2004 13:25 93.97 24.1 8.1
5/5/2004 13:55 93.97 23.2 7.8
5/5/2004 14:25 94.73 24.66 8.1
5/5/2004 14:55 93.97 27.94 9.5
5/5/2004 15:25 93.21 27.36 9.5
5/5/2004 15:55 92.46 26.8 9.5
5/5/2004 16:25 90.96 31.36 12
5/5/2004 16:55 90.22 29.32 11.3
5/5/2004 17:25 88.74 31.82 13.1
5/5/2004 17:55 86.55 31.56 13.9
5/5/2004 18:25 83.67 40 21.3
5/5/2004 18:55 80.82 42.96 26.2
5/5/2004 19:25 79.41 43.12 27.6
5/5/2004 19:55 78.71 43.36 28.5
5/5/2004 20:25 77.31 43.06 29.5
5/5/2004 20:55 75.92 43.06 30.9
5/5/2004 21:25 75.22 44.08 32.9
5/5/2004 21:55 73.84 42.08 31.9
5/5/2004 22:25 72.46 43.5 35.3
5/5/2004 22:55 72.46 44.94 37.3
5/5/2004 23:25 71.77 45.7 39.3
5/5/2004 23:55 69.71 46.78 43.9
5/6/2004 0:25 68.33 49.32 50.6
5/6/2004 0:55 66.28 50.74 57.3
5/6/2004 1:25 65.59 50.62 58.4
5/6/2004 1:55 65.59 49.88 56.8
5/6/2004 2:25 66.28 50.52 56.8
5/6/2004 2:55 64.91 49.98 58.4
5/6/2004 3:25 64.91 50.2 58.9
5/6/2004 3:55 62.85 48.06 58.4
5/6/2004 4:25 62.17 48.3 60.4
5/6/2004 4:55 62.17 46.9 57.3
5/6/2004 5:25 61.48 48.14 61.5
5/6/2004 5:55 63.54 47.48 55.8
5/6/2004 6:25 69.02 47.62 46.4
5/6/2004 6:55 74.53 43.48 32.9
5/6/2004 7:25 73.84 43.96 34.3
5/6/2004 7:55 77.31 40.48 26.7
5/6/2004 8:25 79.41 38.98 23.5
5/6/2004 8:55 81.53 39.74 22.6
5/6/2004 9:25 83.67 38.38 20
5/6/2004 9:55 84.38 35.58 17.5
5/6/2004 10:25 87.28 34.04 15
5/6/2004 10:55 87.28 35.96 16.2
5/6/2004 11:25 88.01 26.76 10.9
5/6/2004 11:55 88.74 31.06 12.7
5/6/2004 12:25 89.48 43.14 20
5/6/2004 12:55 88.74 43.56 20.8
5/6/2004 13:25 88.74 46.76 23.5
5/6/2004 13:55 87.28 47.92 25.7
5/6/2004 14:25 87.28 45.54 23.5
5/6/2004 14:55 85.83 46.28 25.3
5/6/2004 15:25 84.38 45.98 26.2
5/6/2004 15:55 83.67 45.38 26.2
5/6/2004 16:25 82.95 44.76 26.2
5/6/2004 16:55 81.53 44.44 27.1
5/6/2004 17:25 80.82 44.32 27.6
5/6/2004 17:55 78.71 42.52 27.6
5/6/2004 18:25 75.92 40.96 28.5
5/6/2004 18:55 74.53 41.44 30.4
5/6/2004 19:25 73.15 47.94 40.8
5/6/2004 19:55 71.08 49.22 45.9
5/6/2004 20:25 69.71 50.58 50.6
5/6/2004 20:55 69.02 50.46 51.6
5/6/2004 21:25 68.33 50.4 52.7
5/6/2004 21:55 67.65 50.52 54.2
5/6/2004 22:25 66.96 49.88 54.2
5/6/2004 22:55 66.28 49.8 55.3
5/6/2004 23:25 65.59 50.1 57.3
5/6/2004 23:55 64.91 50.2 58.9
5/7/2004 0:25 64.22 48.36 56.3
5/7/2004 0:55 63.54 46.72 54.2
5/7/2004 1:25 63.54 46.96 54.7
5/7/2004 1:55 62.17 45.44 54.2
5/7/2004 2:25 62.17 43.38 50.1
5/7/2004 2:55 62.17 42 47.5
5/7/2004 3:25 60.8 42.12 50.1
5/7/2004 3:55 60.11 43.28 53.7
5/7/2004 4:25 58.73 40.72 51.1
5/7/2004 4:55 58.73 37.42 44.9
5/7/2004 5:25 59.42 36.24 41.8
5/7/2004 5:55 62.17 36.48 38.3
5/7/2004 6:25 69.71 35.28 28.1
5/7/2004 6:55 73.84 32.78 22.1
5/7/2004 7:25 74.53 31.36 20.4
5/7/2004 7:55 76.62 26.2 15.4
5/7/2004 8:25 78.71 27.88 15.4
5/7/2004 8:55 79.41 27.14 14.6
5/7/2004 9:25 81.53 26.92 13.5
5/7/2004 9:55 84.38 28.42 13.1
5/7/2004 10:25 85.83 26.6 11.6
5/7/2004 10:55 85.83 37.88 18.3
5/7/2004 11:25 85.83 40.14 20
5/7/2004 11:55 85.83 40.14 20
5/7/2004 12:25 85.83 39.5 19.5
5/7/2004 12:55 86.55 40.74 20
5/7/2004 13:25 85.83 42.72 22.1
5/7/2004 13:55 85.1 43.16 23
5/7/2004 14:25 84.38 41.54 22.1
5/7/2004 14:55 85.1 40.06 20.4
5/7/2004 15:25 84.38 39.98 20.8
5/7/2004 15:55 83.67 38.38 20
5/7/2004 16:25 82.95 39.4 21.3
5/7/2004 16:55 79.41 43.58 28.1
5/7/2004 17:25 78.71 41.66 26.7
5/7/2004 17:55 77.31 41.78 28.1
5/7/2004 18:25 75.92 43.48 31.4
5/7/2004 18:55 74.53 42.28 31.4
5/7/2004 19:25 73.84 42.08 31.9
5/7/2004 19:55 73.15 42.6 33.3
5/7/2004 20:25 71.77 42.52 34.8
5/7/2004 20:55 71.08 43.02 36.3
5/7/2004 21:25 69.71 44.52 40.3
5/7/2004 21:55 69.71 45.48 41.8
5/7/2004 22:25 69.02 45.56 42.9
5/7/2004 22:55 69.02 45.86 43.4
5/7/2004 23:25 68.33 46.72 45.9
5/7/2004 23:55 68.33 46.14 44.9
5/8/2004 0:25 67.65 46.38 46.4
5/8/2004 0:55 67.65 47 47.5
5/8/2004 1:25 66.96 46.38 47.5
5/8/2004 1:55 66.96 46.1 47
5/8/2004 2:25 66.28 45.74 47.5
5/8/2004 2:55 66.28 47.68 51.1
5/8/2004 3:25 65.59 47.32 51.6
5/8/2004 3:55 64.91 47.98 54.2
5/8/2004 4:25 64.22 47.88 55.3
5/8/2004 4:55 62.85 46.6 55.3
5/8/2004 5:25 62.85 47.32 56.8
5/8/2004 5:55 64.22 47.88 55.3
5/8/2004 6:25 70.39 49.22 47
5/8/2004 6:55 70.39 48.88 46.4
5/8/2004 7:25 71.77 44.34 37.3
5/8/2004 7:55 71.08 43.02 36.3
5/8/2004 8:25 71.77 43.98 36.8
5/8/2004 8:55 73.84 43.58 33.8
5/8/2004 9:25 76.62 44.5 31.9
5/8/2004 9:55 78.71 45.04 30.4
5/8/2004 10:25 79.41 45.3 30
5/8/2004 10:55 80.82 42.06 25.3
5/8/2004 11:25 83.67 41.52 22.6
5/8/2004 11:55 86.55 41.76 20.8
5/8/2004 12:25 87.28 43.46 21.7
5/8/2004 12:55 88.74 41.88 19.5
5/8/2004 13:25 90.96 38.26 15.8
5/8/2004 13:55 92.46 38.12 15
5/8/2004 14:25 90.96 38.26 15.8
5/8/2004 14:55 92.46 29.24 10.5
5/8/2004 15:25 87.28 50.68 28.5
5/8/2004 15:55 85.1 50.56 30.4
5/8/2004 16:25 83.67 50.62 31.9
5/8/2004 16:55 81.53 47.12 30
5/8/2004 17:25 81.53 47.48 30.4
5/8/2004 17:55 80.82 49.7 33.8
5/8/2004 18:25 78.01 49.5 36.8
5/8/2004 18:55 76.62 50.36 39.8
5/8/2004 19:25 74.53 50.52 42.9
5/8/2004 19:55 73.84 51.72 45.9
5/8/2004 20:25 72.46 51.68 48
5/8/2004 20:55 71.77 52.2 50.1
5/8/2004 21:25 70.39 52 52.1
5/8/2004 21:55 70.39 52.56 53.2
5/8/2004 22:25 69.02 53.06 56.8
5/8/2004 22:55 67.65 52.78 58.9
5/8/2004 23:25 66.96 52.36 59.4
5/8/2004 23:55 66.28 52.44 61
5/9/2004 0:25 65.59 52.02 61.5
5/9/2004 0:55 64.91 51.38 61.5
5/9/2004 1:25 63.54 50.08 61.5
5/9/2004 1:55 62.85 48.74 59.9
5/9/2004 2:25 62.17 47.86 59.4
5/9/2004 2:55 61.48 47 58.9
5/9/2004 3:25 61.48 47 58.9
5/9/2004 3:55 60.11 47.06 62
5/9/2004 4:25 60.8 43.14 52.1
5/9/2004 4:55 59.42 42.88 54.2
5/9/2004 5:25 60.11 46.64 61
5/9/2004 5:55 63.54 50.3 62
5/9/2004 6:25 68.33 50.4 52.7
5/9/2004 6:55 66.96 51.38 57.3
5/9/2004 7:25 66.96 50.42 55.3
5/9/2004 7:55 69.02 49.36 49.5
5/9/2004 8:25 71.08 49.5 46.4
5/9/2004 8:55 73.15 48.26 41.3
5/9/2004 9:25 75.22 46.32 35.8
5/9/2004 9:55 77.31 45.5 32.4
5/9/2004 10:25 79.41 44.86 29.5
5/9/2004 10:55 81.53 46.22 29
5/9/2004 11:25 83.67 45.86 26.7
5/9/2004 11:55 85.1 45.14 24.8
5/9/2004 12:25 88.01 44.06 21.7
5/9/2004 12:55 88.01 46.16 23.5
5/9/2004 13:25 88.74 48.72 25.3
5/9/2004 13:55 87.28 49.82 27.6
5/9/2004 14:25 86.55 49.68 28.1
5/9/2004 14:55 85.83 49.9 29
5/9/2004 15:25 85.83 49.44 28.5
5/9/2004 15:55 84.38 50.8 31.4
5/9/2004 16:25 83.67 51.02 32.4
5/9/2004 16:55 81.53 51.1 34.8
5/9/2004 17:25 80.12 52.08 37.8
5/9/2004 17:55 77.31 51.32 40.3
5/9/2004 18:25 73.84 51.42 45.4
5/9/2004 18:55 71.77 51.6 49
5/9/2004 19:25 69.71 51.92 53.2
5/9/2004 19:55 68.33 52.18 56.3
5/9/2004 20:25 66.96 52.36 59.4
5/9/2004 20:55 66.28 52.66 61.5
5/9/2004 21:25 65.59 53.36 64.6
5/9/2004 21:55 64.91 52.92 65.1
5/9/2004 22:25 64.22 52.48 65.6
5/9/2004 22:55 63.54 53.04 68.6
5/9/2004 23:25 62.17 52.12 69.6
5/9/2004 23:55 62.17 52.92 71.7
5/10/2004 0:25 61.48 52.98 73.6
5/10/2004 0:55 60.8 53.22 76.1
5/10/2004 1:25 60.11 53.06 77.5
5/10/2004 1:55 59.42 53.22 79.9
5/10/2004 2:25 58.73 53.5 82.7
5/10/2004 2:55 57.35 53.18 85.9
5/10/2004 3:25 56.66 53.82 90.2
5/10/2004 3:55 55.97 53.14 90.2
5/10/2004 4:25 56.66 53.56 89.3
5/10/2004 4:55 56.66 53.02 87.6
5/10/2004 5:25 56.66 52.62 86.3
5/10/2004 5:55 57.35 52.6 84.1
5/10/2004 6:25 58.04 52.52 81.8
5/10/2004 6:55 60.8 53.22 76.1
5/10/2004 7:25 62.17 52.92 71.7
5/10/2004 7:55 63.54 51.82 65.6
5/10/2004 8:25 66.28 51.26 58.4
5/10/2004 8:55 68.33 51.7 55.3
5/10/2004 9:25 71.08 50.14 47.5
5/10/2004 9:55 73.15 49.28 42.9
5/10/2004 10:25 75.22 45.56 34.8
5/10/2004 10:55 75.92 44.7 32.9
5/10/2004 11:25 78.01 44.86 30.9
5/10/2004 11:55 78.71 43.36 28.5
5/10/2004 12:25 79.41 43.96 28.5
5/10/2004 12:55 80.82 42.46 25.7
5/10/2004 13:25 81.53 39.16 22.1
5/10/2004 13:55 82.24 38.2 20.8
5/10/2004 14:25 82.24 35.52 18.7
5/10/2004 14:55 82.95 35.54 18.3
5/10/2004 15:25 82.24 28.88 14.3
5/10/2004 15:55 81.53 40.74 23.5
5/10/2004 16:25 78.71 44.7 30
5/10/2004 16:55 75.22 45.18 34.3
5/10/2004 17:25 73.15 45.9 37.8
5/10/2004 17:55 71.08 47.42 42.9
5/10/2004 18:25 66.96 49.38 53.2
5/10/2004 18:55 64.91 50.2 58.9
5/10/2004 19:25 62.85 50.3 63.5
5/10/2004 19:55 61.48 50.48 67.1
5/10/2004 20:25 60.8 51.24 70.7
5/10/2004 20:55 60.11 51.48 73.1
5/10/2004 21:25 58.73 50.7 74.6
5/10/2004 21:55 58.04 50.88 77
5/10/2004 22:25 57.35 50.9 79
5/10/2004 22:55 56.66 51.18 81.8
5/10/2004 23:25 55.28 50.98 85.4
5/10/2004 23:55 55.28 51.26 86.3
5/11/2004 0:25 55.28 51.38 86.7
5/11/2004 0:55 55.28 51.26 86.3
5/11/2004 1:25 54.58 50.98 87.6
5/11/2004 1:55 54.58 50.86 87.2
5/11/2004 2:25 53.89 50.42 88
5/11/2004 2:55 53.19 49.6 87.6
5/11/2004 3:25 53.19 49.34 86.7
5/11/2004 3:55 53.19 49.48 87.2
5/11/2004 4:25 52.49 49.2 88.5
5/11/2004 4:55 51.79 48.62 88.9
5/11/2004 5:25 51.79 48.62 88.9
5/11/2004 5:55 52.49 48.4 85.9
5/11/2004 6:25 53.89 48.76 82.7
5/11/2004 6:55 55.97 47.86 74.1
5/11/2004 7:25 57.35 47.14 68.6
5/11/2004 7:55 58.04 46.4 65.1
5/11/2004 8:25 60.11 46.38 60.4
5/11/2004 8:55 62.17 45.2 53.7
5/11/2004 9:25 63.54 42.08 45.4
5/11/2004 9:55 64.91 40.24 40.3
5/11/2004 10:25 67.65 39.98 36.3
5/11/2004 10:55 69.02 39.36 33.8
5/11/2004 11:25 71.08 37.68 29.5
5/11/2004 11:55 73.15 36.46 26.2
5/11/2004 12:25 73.84 38.36 27.6
5/11/2004 12:55 74.53 40.22 29
5/11/2004 13:25 74.53 43.8 33.3
5/11/2004 13:55 73.15 45.56 37.3
5/11/2004 14:25 73.84 45.08 35.8
5/11/2004 14:55 73.84 44.34 34.8
5/11/2004 15:25 73.84 46.52 37.8
5/11/2004 15:55 72.46 46.32 39.3
5/11/2004 16:25 71.77 46.04 39.8
5/11/2004 16:55 70.39 47.4 43.9
5/11/2004 17:25 69.02 47.62 46.4
5/11/2004 17:55 67.65 47.56 48.5
5/11/2004 18:25 64.91 47.74 53.7
5/11/2004 18:55 62.85 48.5 59.4
5/11/2004 19:25 60.8 49.62 66.6
5/11/2004 19:55 59.42 49.92 70.7
5/11/2004 20:25 58.04 50.22 75.1
5/11/2004 20:55 56.66 49.54 77
5/11/2004 21:25 55.97 50.04 80.4
5/11/2004 21:55 55.28 50.28 83.2
5/11/2004 22:25 54.58 50.02 84.5
5/11/2004 22:55 53.89 49.48 85
5/11/2004 23:25 53.19 49.2 86.3
5/11/2004 23:55 52.49 48.92 87.6
5/12/2004 0:25 53.19 49.88 88.5
5/12/2004 0:55 53.19 49.48 87.2
5/12/2004 1:25 53.19 49.48 87.2
5/12/2004 1:55 53.89 49.9 86.3
5/12/2004 2:25 53.89 49.76 85.9
5/12/2004 2:55 53.19 49.08 85.9
5/12/2004 3:25 53.19 49.2 86.3
5/12/2004 3:55 51.79 48.24 87.6
5/12/2004 4:25 51.08 48.04 89.3
5/12/2004 4:55 51.08 47.8 88.5
5/12/2004 5:25 51.08 47.54 87.6
5/12/2004 5:55 52.49 49.04 88
5/12/2004 6:25 58.73 51.72 77.5
5/12/2004 6:55 58.73 49.62 71.7
5/12/2004 7:25 58.73 48.26 68.1
5/12/2004 7:55 61.48 43.76 52.1
5/12/2004 8:25 64.22 39.62 40.3
5/12/2004 8:55 67.65 44.32 42.9
5/12/2004 9:25 69.02 42.24 37.8
5/12/2004 9:55 71.77 39.04 30.4
5/12/2004 10:25 73.84 37.52 26.7
5/12/2004 10:55 76.62 35.08 22.1
5/12/2004 11:25 78.01 33.1 19.5
5/12/2004 11:55 78.71 35.9 21.3
5/12/2004 12:25 80.12 34.32 19.1
5/12/2004 12:55 80.82 36.54 20.4
5/12/2004 13:25 80.12 40.94 24.8
5/12/2004 13:55 80.12 40.94 24.8
5/12/2004 14:25 79.41 39.94 24.4
5/12/2004 14:55 79.41 41.76 26.2
5/12/2004 15:25 78.71 40.28 25.3
5/12/2004 15:55 78.01 40.58 26.2
5/12/2004 16:25 77.31 42.16 28.5
5/12/2004 16:55 75.92 42.28 30
5/12/2004 17:25 73.84 43.96 34.3
5/12/2004 17:55 71.77 43.98 36.8
5/12/2004 18:25 69.71 44.2 39.8
5/12/2004 18:55 68.33 44.56 42.3
5/12/2004 19:25 66.28 44.28 44.9
5/12/2004 19:55 64.91 44.78 48
5/12/2004 20:25 63.54 44.64 50.1
5/12/2004 20:55 62.85 44.28 50.6
5/12/2004 21:25 62.85 44.02 50.1
5/12/2004 21:55 61.48 43.52 51.6
5/12/2004 22:25 60.8 43.68 53.2
5/12/2004 22:55 60.11 44.06 55.3
5/12/2004 23:25 59.42 44.12 56.8
5/12/2004 23:55 57.35 43.34 59.4
5/13/2004 0:25 57.35 44.04 61
5/13/2004 0:55 56.66 43.6 61.5
5/13/2004 1:25 55.97 44.02 64.1
5/13/2004 1:55 55.97 44.84 66.1
5/13/2004 2:25 55.28 44.56 67.1
5/13/2004 2:55 54.58 44.28 68.1
5/13/2004 3:25 53.89 44.2 69.6
5/13/2004 3:55 52.49 44.14 73.1
5/13/2004 4:25 52.49 45.02 75.6
5/13/2004 4:55 51.79 44.34 75.6
5/13/2004 5:25 52.49 45.36 76.6
5/13/2004 5:55 55.97 46.98 71.7
5/13/2004 6:25 62.17 48.08 59.9
5/13/2004 6:55 64.22 45.8 51.1
5/13/2004 7:25 66.96 43.02 41.8
5/13/2004 7:55 75.22 28.72 17.9
5/13/2004 8:25 77.31 27.98 16.2
5/13/2004 8:55 78.01 26.68 15
5/13/2004 9:25 79.41 27.14 14.6
5/13/2004 9:55 79.41 28.44 15.4
5/13/2004 10:25 80.12 28.36 15
5/13/2004 10:55 80.82 27.76 14.3
5/13/2004 11:25 81.53 27.62 13.9
5/13/2004 11:55 82.24 29.38 14.6
5/13/2004 12:25 83.67 28.6 13.5
5/13/2004 12:55 82.95 25.98 12.4
5/13/2004 13:25 82.95 25.98 12.4
5/13/2004 13:55 83.67 23.44 10.9
5/13/2004 14:25 83.67 23.44 10.9
5/13/2004 14:55 83.67 20.2 9.5
5/13/2004 15:25 82.95 20.4 9.8
5/13/2004 15:55 82.95 18.66 9.1
5/13/2004 16:25 83.67 15.64 7.8
5/13/2004 16:55 81.53 18.6 9.5
5/13/2004 17:25 80.12 18.26 9.8
5/13/2004 17:55 78.71 20.5 11.3
5/13/2004 18:25 77.31 20.04 11.6
5/13/2004 18:55 75.92 18.34 11.3
5/13/2004 19:25 73.84 20.88 13.5
5/13/2004 19:55 72.46 22.26 15
5/13/2004 20:25 70.39 21.84 15.8
5/13/2004 20:55 69.02 22.46 17
5/13/2004 21:25 69.02 23.14 17.5
5/13/2004 21:55 66.96 22 17.9
5/13/2004 22:25 66.28 22.48 18.7
5/13/2004 22:55 64.91 21.36 18.7
5/13/2004 23:25 63.54 19.22 17.9
5/13/2004 23:55 63.54 18.7 17.5
5/14/2004 0:25 62.17 18.6 18.3
5/14/2004 0:55 62.17 17.58 17.5
5/14/2004 1:25 60.11 17.42 18.7
5/14/2004 1:55 60.8 16.98 17.9
5/14/2004 2:25 59.42 17.34 19.1
5/14/2004 2:55 60.11 16.42 17.9
5/14/2004 3:25 59.42 16.36 18.3
5/14/2004 3:55 59.42 17.34 19.1
5/14/2004 4:25 58.04 16.2 19.1
5/14/2004 4:55 58.04 17.72 20.4
5/14/2004 5:25 59.42 18.4 20
5/14/2004 5:55 62.85 18.66 17.9
5/14/2004 6:25 66.96 20.8 17
5/14/2004 6:55 71.08 20.54 14.6
5/14/2004 7:25 73.84 17.34 11.6
5/14/2004 7:55 78.01 16.66 9.8
5/14/2004 8:25 82.24 26 12.7
5/14/2004 8:55 82.24 23.22 11.3
5/14/2004 9:25 82.95 21.34 10.2
5/14/2004 9:55 83.67 21.88 10.2
5/14/2004 10:25 86.55 20.58 8.8
5/14/2004 10:55 88.01 18.84 7.8
5/14/2004 11:25 88.01 16.98 7.2
5/14/2004 11:55 88.01 17.92 7.5
5/14/2004 12:25 88.74 17.52 7.2
5/14/2004 12:55 88.74 19.38 7.8
5/14/2004 13:25 88.74 17.52 7.2
5/14/2004 13:55 89.48 18.06 7.2
5/14/2004 14:25 90.96 18.14 6.9
5/14/2004 14:55 89.48 28.76 11.3
5/14/2004 15:25 90.22 29.96 11.6
5/14/2004 15:55 89.48 28.76 11.3
5/14/2004 16:25 86.55 30.1 13.1
5/14/2004 16:55 82.24 33.14 17
5/14/2004 17:25 81.53 28.82 14.6
5/14/2004 17:55 80.12 25.08 13.1
5/14/2004 18:25 78.01 21.36 12
5/14/2004 18:55 76.62 21.62 12.7
5/14/2004 19:25 74.53 20.72 13.1
5/14/2004 19:55 73.15 22.18 14.6
5/14/2004 20:25 72.46 24.08 16.2
5/14/2004 20:55 71.77 26.46 18.3
5/14/2004 21:25 69.71 27.38 20.4
5/14/2004 21:55 67.65 26.72 21.3
5/14/2004 22:25 66.96 27.58 22.6
5/14/2004 22:55 65.59 27.78 23.9
5/14/2004 23:25 64.22 26.64 23.9
5/14/2004 23:55 63.54 26.06 23.9
5/15/2004 0:25 62.85 26.36 24.8
5/15/2004 0:55 62.17 26.26 25.3
5/15/2004 1:25 60.8 26.4 26.7
5/15/2004 1:55 59.42 26.44 28.1
5/15/2004 2:25 59.42 26.02 27.6
5/15/2004 2:55 58.73 26.2 28.5
5/15/2004 3:25 58.04 26.42 29.5
5/15/2004 3:55 58.04 27.16 30.4
5/15/2004 4:25 57.35 28.46 32.9
5/15/2004 4:55 57.35 28.1 32.4
5/15/2004 5:25 58.04 29.08 32.9
5/15/2004 5:55 62.17 30.74 30.4
5/15/2004 6:25 70.39 33.62 25.7
5/15/2004 6:55 74.53 32.44 21.3
5/15/2004 7:25 75.22 31.44 20
5/15/2004 7:55 76.62 29.86 17.9
5/15/2004 8:25 78.71 31 17.5
5/15/2004 8:55 80.12 29 15.4
5/15/2004 9:25 82.24 27.48 13.5
5/15/2004 9:55 84.38 28.42 13.1
5/15/2004 10:25 85.83 29.54 13.1
5/15/2004 10:55 88.01 31.98 13.5
5/15/2004 11:25 88.01 35.26 15.4
5/15/2004 11:55 87.28 40.68 19.5
5/15/2004 12:25 88.01 41.94 20
5/15/2004 12:55 88.74 41.88 19.5
5/15/2004 13:25 86.55 41.26 20.4
5/15/2004 13:55 86.55 40.74 20
5/15/2004 14:25 86.55 39.56 19.1
5/15/2004 14:55 85.83 36.74 17.5
5/15/2004 15:25 85.1 34.22 16.2
5/15/2004 15:55 84.38 34.26 16.6
5/15/2004 16:25 82.95 34.42 17.5
5/15/2004 16:55 80.82 42.46 25.7
5/15/2004 17:25 78.01 45.28 31.4
5/15/2004 17:55 75.92 45.4 33.8
5/15/2004 18:25 73.84 46.52 37.8
5/15/2004 18:55 71.08 45.1 39.3
5/15/2004 19:25 69.71 45.48 41.8
5/15/2004 19:55 69.02 45.86 43.4
5/15/2004 20:25 68.33 46.14 44.9
5/15/2004 20:55 66.28 47.16 50.1
5/15/2004 21:25 64.91 47.48 53.2
5/15/2004 21:55 63.54 46.22 53.2
5/15/2004 22:25 63.54 46.96 54.7
5/15/2004 22:55 62.85 48.06 58.4
5/15/2004 23:25 62.17 48.3 60.4
5/15/2004 23:55 60.11 47.94 64.1
5/16/2004 0:25 60.11 48.16 64.6
5/16/2004 0:55 58.73 47.86 67.1
5/16/2004 1:25 58.04 47 66.6
5/16/2004 1:55 57.35 47.14 68.6
5/16/2004 2:25 56.66 47.98 72.6
5/16/2004 2:55 56.66 46.46 68.6
5/16/2004 3:25 55.97 45.62 68.1
5/16/2004 3:55 55.28 46.64 72.6
5/16/2004 4:25 54.58 49.14 81.8
5/16/2004 4:55 54.58 49.28 82.2
5/16/2004 5:25 53.89 48.92 83.2
5/16/2004 5:55 55.97 50.96 83.2
5/16/2004 6:25 53.19 50.12 89.3
5/16/2004 6:55 54.58 50.58 86.3
5/16/2004 7:25 58.04 50.04 74.6
5/16/2004 7:55 62.17 48.3 60.4
5/16/2004 8:25 65.59 46.22 49.5
5/16/2004 8:55 66.96 45.48 45.9
5/16/2004 9:25 69.71 44.52 40.3
5/16/2004 9:55 72.46 43.88 35.8
5/16/2004 10:25 74.53 42.68 31.9
5/16/2004 10:55 76.62 42 29
5/16/2004 11:25 78.71 39.76 24.8
5/16/2004 11:55 79.41 41.76 26.2
5/16/2004 12:25 80.12 42.36 26.2
5/16/2004 12:55 80.82 40.58 23.9
5/16/2004 13:25 80.82 42.96 26.2
5/16/2004 13:55 80.12 41.86 25.7
5/16/2004 14:25 79.41 43.58 28.1
5/16/2004 14:55 80.12 43.24 27.1
5/16/2004 15:25 79.41 44.86 29.5
5/16/2004 15:55 78.01 43.66 29.5
5/16/2004 16:25 76.62 43.24 30.4
5/16/2004 16:55 75.22 45.94 35.3
5/16/2004 17:25 73.84 47.56 39.3
5/16/2004 17:55 71.77 48.94 44.4
5/16/2004 18:25 68.33 49.84 51.6
5/16/2004 18:55 65.59 51.3 59.9
5/16/2004 19:25 63.54 51.2 64.1
5/16/2004 19:55 62.17 51.54 68.1
5/16/2004 20:25 61.48 51.46 69.6
5/16/2004 20:55 60.8 51.76 72.1
5/16/2004 21:25 60.11 51.66 73.6
5/16/2004 21:55 58.73 51.06 75.6
5/16/2004 22:25 58.04 51.06 77.5
5/16/2004 22:55 56.66 50.84 80.8
5/16/2004 23:25 55.97 50.96 83.2
5/16/2004 23:55 55.97 50.62 82.2
5/17/2004 0:25 55.28 50.86 85
5/17/2004 0:55 54.58 51.38 88.9
5/17/2004 1:25 53.89 51.08 90.2
5/17/2004 1:55 53.89 50.82 89.3
5/17/2004 2:25 53.89 50.42 88
5/17/2004 2:55 53.89 50.58 88.5
5/17/2004 3:25 53.19 50 88.9
5/17/2004 3:55 53.19 50.12 89.3
5/17/2004 4:25 53.19 50 88.9
5/17/2004 4:55 52.49 49.44 89.3
5/17/2004 5:25 52.49 49.32 88.9
5/17/2004 5:55 52.49 49.04 88
5/17/2004 6:25 53.19 49.2 86.3
5/17/2004 6:55 55.28 49.94 82.2
5/17/2004 7:25 56.66 50.06 78.5
5/17/2004 7:55 58.04 50.38 75.6
5/17/2004 8:25 60.11 49.96 69.1
5/17/2004 8:55 60.11 49.96 69.1
5/17/2004 9:25 61.48 49.86 65.6
5/17/2004 9:55 64.91 50.2 58.9
5/17/2004 10:25 68.33 48.72 49.5
5/17/2004 10:55 69.71 47.96 45.9
5/17/2004 11:25 72.46 45.98 38.8
5/17/2004 11:55 74.53 45.32 35.3
5/17/2004 12:25 75.92 45.02 33.3
5/17/2004 12:55 77.31 45.5 32.4
5/17/2004 13:25 77.31 44.26 30.9
5/17/2004 13:55 77.31 46.22 33.3
5/17/2004 14:25 75.92 48.36 37.8
5/17/2004 14:55 75.22 49.46 40.3
5/17/2004 15:25 75.22 48.78 39.3
5/17/2004 15:55 74.53 49.18 40.8
5/17/2004 16:25 74.53 48.84 40.3
5/17/2004 16:55 73.15 49.58 43.4
5/17/2004 17:25 71.77 50.48 47
5/17/2004 17:55 69.71 49.98 49.5
5/17/2004 18:25 67.65 50.52 54.2
5/17/2004 18:55 65.59 51.08 59.4
5/17/2004 19:25 63.54 51.4 64.6
5/17/2004 19:55 62.17 51.54 68.1
5/17/2004 20:25 60.8 51.42 71.2
5/17/2004 20:55 60.11 51.28 72.6
5/17/2004 21:25 59.42 51.54 75.1
5/17/2004 21:55 58.73 51.4 76.6
5/17/2004 22:25 58.04 50.74 76.6
5/17/2004 22:55 58.04 50.56 76.1
5/17/2004 23:25 58.04 50.04 74.6
5/17/2004 23:55 58.04 50.22 75.1
5/18/2004 0:25 57.35 49.36 74.6
5/18/2004 0:55 57.35 50.22 77
5/18/2004 1:25 56.66 48.88 75.1
5/18/2004 1:55 55.97 48.56 76.1
5/18/2004 2:25 55.28 47.18 74.1
5/18/2004 2:55 55.28 47.54 75.1
5/18/2004 3:25 54.58 48.68 80.4
5/18/2004 3:55 53.89 47.54 79
5/18/2004 4:25 53.89 47.2 78
5/18/2004 4:55 53.89 47.54 79
5/18/2004 5:25 54.58 47.52 77
5/18/2004 5:55 60.11 49.76 68.6
5/18/2004 6:25 65.59 49.4 55.8
5/18/2004 6:55 67.65 47.28 48
5/18/2004 7:25 67.65 45.22 44.4
5/18/2004 7:55 70.39 44.14 38.8
5/18/2004 8:25 73.15 42.98 33.8
5/18/2004 8:55 75.22 43.68 32.4
5/18/2004 9:25 77.31 41.78 28.1
5/18/2004 9:55 79.41 39.4 23.9
5/18/2004 10:25 81.53 39.16 22.1
5/18/2004 10:55 82.95 39.4 21.3
5/18/2004 11:25 84.38 40.58 21.3
5/18/2004 11:55 85.83 41.78 21.3
5/18/2004 12:25 86.55 41.26 20.4
5/18/2004 12:55 87.28 43.46 21.7
5/18/2004 13:25 87.28 44.52 22.6
5/18/2004 13:55 87.28 45.54 23.5
5/18/2004 14:25 86.55 46.36 24.8
5/18/2004 14:55 86.55 46.88 25.3
5/18/2004 15:25 86.55 47.8 26.2
5/18/2004 15:55 85.83 46.68 25.7
5/18/2004 16:25 85.83 47.7 26.7
5/18/2004 16:55 84.38 45.98 26.2
5/18/2004 17:25 82.95 45.66 27.1
5/18/2004 17:55 81.53 44.06 26.7
5/18/2004 18:25 78.01 45.28 31.4
5/18/2004 18:55 76.62 46.02 33.8
5/18/2004 19:25 74.53 47.48 38.3
5/18/2004 19:55 73.15 48.58 41.8
5/18/2004 20:25 71.77 48.64 43.9
5/18/2004 20:55 70.39 48.3 45.4
5/18/2004 21:25 69.02 47.96 47
5/18/2004 21:55 68.33 47.62 47.5
5/18/2004 22:25 67.65 47.28 48
5/18/2004 22:55 66.28 47.42 50.6
5/18/2004 23:25 66.28 43.08 42.9
5/18/2004 23:55 65.59 42.46 42.9
5/19/2004 0:25 63.54 41.2 43.9
5/19/2004 0:55 62.85 40.28 43.4
5/19/2004 1:25 62.17 39.66 43.4
5/19/2004 1:55 61.48 39.34 43.9
5/19/2004 2:25 61.48 39.04 43.4
5/19/2004 2:55 61.48 38.4 42.3
5/19/2004 3:25 62.17 37.78 40.3
5/19/2004 3:55 62.85 39.02 41.3
5/19/2004 4:25 62.17 39.38 42.9
5/19/2004 4:55 61.48 38.76 42.9
5/19/2004 5:25 60.11 38.68 44.9
5/19/2004 5:55 65.59 40.2 39.3
5/19/2004 6:25 70.39 37.86 30.4
5/19/2004 6:55 73.15 31.28 21.3
5/19/2004 7:25 73.84 31.28 20.8
5/19/2004 7:55 75.92 28.74 17.5
5/19/2004 8:25 78.01 25.54 14.3
5/19/2004 8:55 80.82 22.12 11.3
5/19/2004 9:25 82.95 19.68 9.5
5/19/2004 9:55 84.38 24.86 11.3
5/19/2004 10:25 85.83 24.2 10.5
5/19/2004 10:55 87.28 25.3 10.5
5/19/2004 11:25 88.74 27.32 10.9
5/19/2004 11:55 89.48 26.98 10.5
5/19/2004 12:25 90.22 28.44 10.9
5/19/2004 12:55 90.96 30.54 11.6
5/19/2004 13:25 90.96 32.18 12.4
5/19/2004 13:55 90.22 29.32 11.3
5/19/2004 14:25 90.22 29.96 11.6
5/19/2004 14:55 89.48 31.04 12.4
5/19/2004 15:25 88.74 24.76 9.8
5/19/2004 15:55 88.01 28.26 11.6
5/19/2004 16:25 87.28 28.54 12
5/19/2004 16:55 85.83 30.28 13.5
5/19/2004 17:25 84.38 29.86 13.9
5/19/2004 17:55 82.24 31.32 15.8
5/19/2004 18:25 79.41 31.56 17.5
5/19/2004 18:55 77.31 30.96 18.3
5/19/2004 19:25 74.53 30.88 20
5/19/2004 19:55 73.15 31.74 21.7
5/19/2004 20:25 71.77 28.6 20
5/19/2004 20:55 70.39 23.58 17
5/19/2004 21:25 69.02 24.72 18.7
5/19/2004 21:55 67.65 28.58 23
5/19/2004 22:25 67.65 25.2 20
5/19/2004 22:55 66.28 21.44 17.9
5/19/2004 23:25 64.91 20.34 17.9
5/19/2004 23:55 64.22 17.46 16.2
5/20/2004 0:25 64.22 17.46 16.2
5/20/2004 0:55 63.54 16.9 16.2
5/20/2004 1:25 62.85 16.92 16.6
5/20/2004 1:55 61.48 18.04 18.3
5/20/2004 2:25 60.8 18.96 19.5
5/20/2004 2:55 60.11 20.44 21.3
5/20/2004 3:25 59.42 22.18 23.5
5/20/2004 3:55 59.42 25.58 27.1
5/20/2004 4:25 59.42 27.2 29
5/20/2004 4:55 58.04 27.54 30.9
5/20/2004 5:25 58.73 29.98 33.3
5/20/2004 5:55 64.91 33.92 31.4
5/20/2004 6:25 65.59 33.7 30.4
5/20/2004 6:55 68.33 35.32 29.5
5/20/2004 7:25 68.33 34.88 29
5/20/2004 7:55 69.71 36.5 29.5
5/20/2004 8:25 70.39 34.96 27.1
5/20/2004 8:55 73.15 31.74 21.7
5/20/2004 9:25 73.84 28.66 18.7
5/20/2004 9:55 75.92 35.06 22.6
5/20/2004 10:25 78.01 30.98 17.9
5/20/2004 10:55 79.41 29.68 16.2
5/20/2004 11:25 80.12 28.36 15
5/20/2004 11:55 81.53 26.2 13.1
5/20/2004 12:25 81.53 30.12 15.4
5/20/2004 12:55 80.82 34.36 18.7
5/20/2004 13:25 82.24 31.32 15.8
5/20/2004 13:55 82.24 26 12.7
5/20/2004 14:25 82.24 23.84 11.6
5/20/2004 14:55 82.24 28.18 13.9
5/20/2004 15:25 81.53 26.92 13.5
5/20/2004 15:55 80.82 22.74 11.6
5/20/2004 16:25 80.12 23.78 12.4
5/20/2004 16:55 78.71 35.3 20.8
5/20/2004 17:25 77.31 23.6 13.5
5/20/2004 17:55 75.22 28.18 17.5
5/20/2004 18:25 72.46 28.56 19.5
5/20/2004 18:55 69.71 32.66 25.3
5/20/2004 19:25 67.65 33.86 28.5
5/20/2004 19:55 66.96 35.3 30.9
5/20/2004 20:25 64.91 36.5 34.8
5/20/2004 20:55 63.54 35.28 34.8
5/20/2004 21:25 62.85 38.4 40.3
5/20/2004 21:55 61.48 41.1 47
5/20/2004 22:25 60.11 42 51.1
5/20/2004 22:55 59.42 42.4 53.2
5/20/2004 23:25 58.04 42.36 55.8
5/20/2004 23:55 57.35 43.56 59.9
5/21/2004 0:25 55.97 42.74 61
5/21/2004 0:55 55.28 43.98 65.6
5/21/2004 1:25 54.58 44.48 68.6
5/21/2004 1:55 54.58 45.46 71.2
5/21/2004 2:25 53.19 44.8 73.1
5/21/2004 2:55 53.19 45.16 74.1
5/21/2004 3:25 52.49 45.5 77
5/21/2004 3:55 51.08 44.3 77.5
5/21/2004 4:25 50.38 44.58 80.4
5/21/2004 4:55 50.38 44.58 80.4
5/21/2004 5:25 51.08 43.66 75.6
5/21/2004 5:55 54.58 45.04 70.1
5/21/2004 6:25 55.97 43.16 62
5/21/2004 6:55 58.73 41.52 52.7
5/21/2004 7:25 58.73 39.92 49.5
5/21/2004 7:55 60.8 39.86 45.9
5/21/2004 8:25 63.54 40.24 42.3
5/21/2004 8:55 65.59 40.2 39.3
5/21/2004 9:25 67.65 35.9 30.9
5/21/2004 9:55 69.71 35.28 28.1
5/21/2004 10:25 71.77 33.5 24.4
5/21/2004 10:55 73.84 31.86 21.3
5/21/2004 11:25 75.22 28.18 17.5
5/21/2004 11:55 76.62 25.58 15
5/21/2004 12:25 78.01 29.14 16.6
5/21/2004 12:55 78.71 30.28 17
5/21/2004 13:25 79.41 29.06 15.8
5/21/2004 13:55 80.12 35.96 20.4
5/21/2004 14:25 80.12 32.7 17.9
5/21/2004 14:55 79.41 26.64 14.3
5/21/2004 15:25 78.71 20.5 11.3
5/21/2004 15:55 77.31 24.98 14.3
5/21/2004 16:25 75.92 20.52 12.4
5/21/2004 16:55 75.22 28.18 17.5
5/21/2004 17:25 73.84 29.18 19.1
5/21/2004 17:55 71.77 32.04 23
5/21/2004 18:25 69.02 34.24 27.6
5/21/2004 18:55 66.96 36.1 31.9
5/21/2004 19:25 64.91 39.58 39.3
5/21/2004 19:55 62.85 42.34 47
5/21/2004 20:25 61.48 43.26 51.1
5/21/2004 20:55 60.11 44.28 55.8
5/21/2004 21:25 59.42 45.5 59.9
5/21/2004 21:55 58.04 46 64.1
5/21/2004 22:25 57.35 45.74 65.1
5/21/2004 22:55 55.97 46 69.1
5/21/2004 23:25 55.97 45.8 68.6
5/21/2004 23:55 55.28 45.94 70.7
5/22/2004 0:25 55.28 46.64 72.6
5/22/2004 0:55 53.89 45.66 73.6
5/22/2004 1:25 53.19 46.52 78
5/22/2004 1:55 52.49 46.18 79
5/22/2004 2:25 51.79 45.8 79.9
5/22/2004 2:55 51.79 46.26 81.3
5/22/2004 3:25 50.38 45.32 82.7
5/22/2004 3:55 50.38 46.18 85.4
5/22/2004 4:25 50.38 46.04 85
5/22/2004 4:55 50.38 46.04 85
5/22/2004 5:25 49.67 44.18 81.3
5/22/2004 5:55 53.89 46.36 75.6
5/22/2004 6:25 55.28 45.72 70.1
5/22/2004 6:55 58.73 45.34 61
5/22/2004 7:25 59.42 42.4 53.2
5/22/2004 7:55 62.17 42 47.5
5/22/2004 8:25 64.91 39.92 39.8
5/22/2004 8:55 69.02 35.9 29.5
5/22/2004 9:25 71.77 33.9 24.8
5/22/2004 9:55 73.84 35.66 24.8
5/22/2004 10:25 75.92 34.04 21.7
5/22/2004 10:55 77.31 32.54 19.5
5/22/2004 11:25 78.01 33.1 19.5
5/22/2004 11:55 80.12 33.24 18.3
5/22/2004 12:25 81.53 32.56 17
5/22/2004 12:55 82.95 30.6 15
5/22/2004 13:25 82.95 29.94 14.6
5/22/2004 13:55 82.95 30.6 15
5/22/2004 14:25 83.67 28.6 13.5
5/22/2004 14:55 83.67 27.86 13.1
5/22/2004 15:25 82.95 28.04 13.5
5/22/2004 15:55 82.24 37.72 20.4
5/22/2004 16:25 81.53 30.76 15.8
5/22/2004 16:55 78.71 42.98 28.1
5/22/2004 17:25 76.62 42.88 30
5/22/2004 17:55 74.53 42.68 31.9
5/22/2004 18:25 72.46 35.38 25.7
5/22/2004 18:55 70.39 37.1 29.5
5/22/2004 19:25 68.33 36.9 31.4
5/22/2004 19:55 66.28 37.34 34.3
5/22/2004 20:25 65.59 38.86 37.3
5/22/2004 20:55 64.22 40.24 41.3
5/22/2004 21:25 63.54 40.24 42.3
5/22/2004 21:55 62.17 40.54 44.9
5/22/2004 22:25 60.8 41.02 48
5/22/2004 22:55 60.8 42.38 50.6
5/22/2004 23:25 59.42 41.86 52.1
5/22/2004 23:55 59.42 43.12 54.7
5/23/2004 0:25 58.04 42.6 56.3
5/23/2004 0:55 58.04 43.78 58.9
5/23/2004 1:25 57.35 44.26 61.5
5/23/2004 1:55 56.66 45.08 65.1
5/23/2004 2:25 55.97 43.78 63.5
5/23/2004 2:55 55.28 43.36 64.1
5/23/2004 3:25 54.58 40.08 57.9
5/23/2004 3:55 53.19 42.18 66.1
5/23/2004 4:25 53.19 44.3 71.7
5/23/2004 4:55 53.19 44.3 71.7
5/23/2004 5:25 53.89 44.78 71.2
5/23/2004 5:55 58.73 46.4 63.5
5/23/2004 6:25 60.8 46.12 58.4
5/23/2004 6:55 63.54 44.9 50.6
5/23/2004 7:25 62.17 43.38 50.1
5/23/2004 7:55 63.54 41.2 43.9
5/23/2004 8:25 64.91 41.18 41.8
5/23/2004 8:55 66.96 44.3 43.9
5/23/2004 9:25 69.02 41.9 37.3
5/23/2004 9:55 69.71 39.28 32.9
5/23/2004 10:25 71.77 39.46 30.9
5/23/2004 10:55 73.84 40.5 30
5/23/2004 11:25 75.22 39.08 27.1
5/23/2004 11:55 75.92 37.4 24.8
5/23/2004 12:25 77.31 38.16 24.4
5/23/2004 12:55 77.31 39.1 25.3
5/23/2004 13:25 78.71 40.68 25.7
5/23/2004 13:55 78.01 42.38 28.1
5/23/2004 14:25 78.01 43.2 29
5/23/2004 14:55 77.31 42.6 29
5/23/2004 15:25 76.62 42.88 30
5/23/2004 15:55 75.22 43.28 31.9
5/23/2004 16:25 73.84 44.34 34.8
5/23/2004 16:55 72.46 45.3 37.8
5/23/2004 17:25 71.08 46.08 40.8
5/23/2004 17:55 69.02 46.16 43.9
5/23/2004 18:25 66.96 47.46 49.5
5/23/2004 18:55 65.59 47.56 52.1
5/23/2004 19:25 64.22 47.88 55.3
5/23/2004 19:55 62.85 47.54 57.3
5/23/2004 20:25 62.17 47.64 58.9
5/23/2004 20:55 60.8 46.8 59.9
5/23/2004 21:25 60.11 46.38 60.4
5/23/2004 21:55 59.42 45.72 60.4
5/23/2004 22:25 58.73 45.56 61.5
5/23/2004 22:55 58.73 46.18 63
5/23/2004 23:25 58.04 46.6 65.6
5/23/2004 23:55 57.35 45.94 65.6
5/24/2004 0:25 56.66 46.86 69.6
5/24/2004 0:55 55.97 46.6 70.7
5/24/2004 1:25 55.97 46.6 70.7
5/24/2004 1:55 55.28 46.64 72.6
5/24/2004 2:25 54.58 45.98 72.6
5/24/2004 2:55 54.58 46.52 74.1
5/24/2004 3:25 53.89 46.2 75.1
5/24/2004 3:55 53.89 46.54 76.1
5/24/2004 4:25 53.19 46.52 78
5/24/2004 4:55 52.49 45.84 78
5/24/2004 5:25 53.19 47.32 80.4
5/24/2004 5:55 58.04 49.86 74.1
5/24/2004 6:25 62.17 50.1 64.6
5/24/2004 6:55 63.54 49.16 59.4
5/24/2004 7:25 61.48 46.78 58.4
5/24/2004 7:55 62.85 45.84 53.7
5/24/2004 8:25 66.28 45.48 47
5/24/2004 8:55 68.33 43.62 40.8
5/24/2004 9:25 70.39 42.06 35.8
5/24/2004 9:55 72.46 39.64 30.4
5/24/2004 10:25 74.53 40.66 29.5
5/24/2004 10:55 75.92 37.92 25.3
5/24/2004 11:25 78.01 33.1 19.5
5/24/2004 11:55 78.71 31 17.5
5/24/2004 12:25 79.41 29.68 16.2
5/24/2004 12:55 80.82 30.8 16.2
5/24/2004 13:25 80.82 37.64 21.3
5/24/2004 13:55 80.12 39.56 23.5
5/24/2004 14:25 79.41 39.94 24.4
5/24/2004 14:55 79.41 39.4 23.9
5/24/2004 15:25 78.71 39.76 24.8
5/24/2004 15:55 78.01 39.16 24.8
5/24/2004 16:25 77.31 39.5 25.7
5/24/2004 16:55 75.22 40.36 28.5
5/24/2004 17:25 73.84 40.5 30
5/24/2004 17:55 71.77 41.38 33.3
5/24/2004 18:25 69.02 42.58 38.3
5/24/2004 18:55 67.65 42.36 39.8
5/24/2004 19:25 66.28 42.72 42.3
5/24/2004 19:55 64.91 42.74 44.4
5/24/2004 20:25 64.22 43.88 47.5
5/24/2004 20:55 62.85 44.02 50.1
5/24/2004 21:25 62.17 44.96 53.2
5/24/2004 21:55 61.48 44.8 54.2
5/24/2004 22:25 60.8 44.92 55.8
5/24/2004 22:55 60.11 45.26 57.9
5/24/2004 23:25 58.73 44.42 58.9
5/24/2004 23:55 58.73 44.2 58.4
5/25/2004 0:25 58.04 44 59.4
5/25/2004 0:55 57.35 44.26 61.5
5/25/2004 1:25 56.66 44.22 63
5/25/2004 1:55 55.97 44.64 65.6
5/25/2004 2:25 55.97 45.42 67.6
5/25/2004 2:55 55.28 44.76 67.6
5/25/2004 3:25 55.28 45.14 68.6
5/25/2004 3:55 54.58 44.48 68.6
5/25/2004 4:25 54.58 44.68 69.1
5/25/2004 4:55 53.89 43.82 68.6
5/25/2004 5:25 54.58 44.68 69.1
5/25/2004 5:55 54.58 44.68 69.1
5/25/2004 6:25 55.28 44.76 67.6
5/25/2004 6:55 56.66 45.08 65.1
5/25/2004 7:25 57.35 44.88 63
5/25/2004 7:55 57.35 44.46 62
5/25/2004 8:25 58.04 44.22 59.9
5/25/2004 8:55 60.8 44.16 54.2
5/25/2004 9:25 62.85 44.78 51.6
5/25/2004 9:55 64.91 45.04 48.5
5/25/2004 10:25 66.28 44.28 44.9
5/25/2004 10:55 68.33 42.64 39.3
5/25/2004 11:25 71.08 41.16 33.8
5/25/2004 11:55 72.46 41.28 32.4
5/25/2004 12:25 73.84 40.84 30.4
5/25/2004 12:55 74.53 41.44 30.4
5/25/2004 13:25 75.22 42.46 30.9
5/25/2004 13:55 75.22 41.26 29.5
5/25/2004 14:25 75.92 39.66 27.1
5/25/2004 14:55 75.22 40.82 29
5/25/2004 15:25 74.53 40.66 29.5
5/25/2004 15:55 73.84 40.84 30.4
5/25/2004 16:25 72.46 39.64 30.4
5/25/2004 16:55 70.39 39.48 32.4
5/25/2004 17:25 68.33 39.5 34.8
5/25/2004 17:55 65.59 37.82 35.8
5/25/2004 18:25 64.22 38.32 38.3
5/25/2004 18:55 62.17 39.02 42.3
5/25/2004 19:25 60.8 39 44.4
5/25/2004 19:55 60.11 39.52 46.4
5/25/2004 20:25 58.73 41.22 52.1
5/25/2004 20:55 57.35 41.72 55.8
5/25/2004 21:25 56.66 41.3 56.3
5/25/2004 21:55 55.97 42.04 59.4
5/25/2004 22:25 54.58 43.12 65.1
5/25/2004 22:55 53.89 43.24 67.1
5/25/2004 23:25 53.19 44.62 72.6
5/25/2004 23:55 52.49 44.84 75.1
5/26/2004 0:25 51.79 44.68 76.6
5/26/2004 0:55 51.08 44 76.6
5/26/2004 1:25 50.38 43.32 76.6
5/26/2004 1:55 50.38 43.32 76.6
5/26/2004 2:25 50.38 42.98 75.6
5/26/2004 2:55 49.67 42.76 77
5/26/2004 3:25 48.96 43.04 79.9
5/26/2004 3:55 48.96 43.34 80.8
5/26/2004 4:25 48.96 43.04 79.9
5/26/2004 4:55 48.25 42.18 79.4
5/26/2004 5:25 48.25 42.06 79
5/26/2004 5:55 53.19 44.62 72.6
5/26/2004 6:25 55.28 43.78 65.1
5/26/2004 6:55 56.66 43.38 61
5/26/2004 7:25 56.66 42.48 58.9
5/26/2004 7:55 58.73 40.98 51.6
5/26/2004 8:25 61.48 40.48 45.9
5/26/2004 8:55 63.54 38.04 38.8
5/26/2004 9:25 65.59 37.82 35.8
5/26/2004 9:55 67.65 37.48 32.9
5/26/2004 10:25 69.02 36.34 30
5/26/2004 10:55 70.39 37.86 30.4
5/26/2004 11:25 71.77 38.28 29.5
5/26/2004 11:55 73.15 34.66 24.4
5/26/2004 12:25 73.84 34.72 23.9
5/26/2004 12:55 74.53 33.34 22.1
5/26/2004 13:25 75.22 33.46 21.7
5/26/2004 13:55 74.53 34.88 23.5
5/26/2004 14:25 74.53 34.88 23.5
5/26/2004 14:55 73.84 33.76 23
5/26/2004 15:25 73.15 34.14 23.9
5/26/2004 15:55 73.15 36.46 26.2
5/26/2004 16:25 71.77 36.6 27.6
5/26/2004 16:55 69.71 37.68 30.9
5/26/2004 17:25 68.33 37.68 32.4
5/26/2004 17:55 66.28 38.42 35.8
5/26/2004 18:25 63.54 39 40.3
5/26/2004 18:55 61.48 40.76 46.4
5/26/2004 19:25 60.11 41.48 50.1
5/26/2004 19:55 59.42 42.16 52.7
5/26/2004 20:25 58.04 44.42 60.4
5/26/2004 20:55 57.35 45.74 65.1
5/26/2004 21:25 56.66 45.5 66.1
5/26/2004 21:55 55.97 44.84 66.1
5/26/2004 22:25 55.28 44.76 67.6
5/26/2004 22:55 54.58 44.1 67.6
5/26/2004 23:25 53.19 44.3 71.7
5/26/2004 23:55 53.19 46.98 79.4
5/27/2004 0:25 52.49 47.22 82.2
5/27/2004 0:55 51.79 46.98 83.6
5/27/2004 1:25 51.08 46.46 84.1
5/27/2004 1:55 51.08 46.02 82.7
5/27/2004 2:25 51.08 46.18 83.2
5/27/2004 2:55 50.38 46.18 85.4
5/27/2004 3:25 50.38 46.32 85.9
5/27/2004 3:55 50.38 46.44 86.3
5/27/2004 4:25 50.38 46.72 87.2
5/27/2004 4:55 51.08 46.3 83.6
5/27/2004 5:25 51.08 46.58 84.5
5/27/2004 5:55 55.28 49.82 81.8
5/27/2004 6:25 58.04 49.3 72.6
5/27/2004 6:55 59.42 48.12 66.1
5/27/2004 7:25 59.42 47.04 63.5
5/27/2004 7:55 61.48 45.34 55.3
5/27/2004 8:25 64.91 44.78 48
5/27/2004 8:55 67.65 43.94 42.3
5/27/2004 9:25 69.02 44.24 40.8
5/27/2004 9:55 71.77 43.26 35.8
5/27/2004 10:25 75.92 43.48 31.4
5/27/2004 10:55 78.71 40.68 25.7
5/27/2004 11:25 82.95 35 17.9
5/27/2004 11:55 82.95 31.26 15.4
5/27/2004 12:25 86.55 25.64 10.9
5/27/2004 12:55 87.28 18.3 7.8
5/27/2004 13:25 90.22 21.34 8.1
5/27/2004 13:55 88.74 18.46 7.5
5/27/2004 14:25 88.01 16.98 7.2
5/27/2004 14:55 88.01 43.58 21.3
5/27/2004 15:25 86.55 40.74 20
5/27/2004 15:55 85.83 40.14 20
5/27/2004 16:25 84.38 39.48 20.4
5/27/2004 16:55 83.67 41.98 23
5/27/2004 17:25 81.53 43.56 26.2
5/27/2004 17:55 79.41 45.3 30
5/27/2004 18:25 76.62 45.62 33.3
5/27/2004 18:55 74.53 46.06 36.3
5/27/2004 19:25 73.15 44.48 35.8
5/27/2004 19:55 71.08 43.38 36.8
5/27/2004 20:25 69.71 43.54 38.8
5/27/2004 20:55 69.02 43.26 39.3
5/27/2004 21:25 67.65 42.68 40.3
5/27/2004 21:55 66.96 41.74 39.8
5/27/2004 22:25 65.59 40.84 40.3
5/27/2004 22:55 64.91 40.56 40.8
5/27/2004 23:25 64.22 40.56 41.8
5/27/2004 23:55 62.85 39.64 42.3
5/28/2004 0:25 61.48 39.34 43.9
5/28/2004 0:55 61.48 40.2 45.4
5/28/2004 1:25 60.8 39.86 45.9
5/28/2004 1:55 60.8 38.42 43.4
5/28/2004 2:25 59.42 38.6 45.9
5/28/2004 2:55 58.73 37.7 45.4
5/28/2004 3:25 57.35 37.86 48
5/28/2004 3:55 57.35 38.96 50.1
5/28/2004 4:25 57.35 38.96 50.1
5/28/2004 4:55 57.35 41.48 55.3
5/28/2004 5:25 56.66 42.7 59.4
5/28/2004 5:55 61.48 49.24 64.1
5/28/2004 6:25 62.17 49.9 64.1
5/28/2004 6:55 62.17 49.64 63.5
5/28/2004 7:25 61.48 49 63.5
5/28/2004 7:55 63.54 47.96 56.8
5/28/2004 8:25 65.59 48.62 54.2
5/28/2004 8:55 66.96 48.84 52.1
5/28/2004 9:25 69.02 48.26 47.5
5/28/2004 9:55 71.08 49.5 46.4
5/28/2004 10:25 73.84 48.88 41.3
5/28/2004 10:55 75.22 49.12 39.8
5/28/2004 11:25 75.92 48.36 37.8
5/28/2004 11:55 77.31 49.24 37.3
5/28/2004 12:25 78.01 49.14 36.3
5/28/2004 12:55 78.71 48.24 34.3
5/28/2004 13:25 79.41 49.24 34.8
5/28/2004 13:55 79.41 48.46 33.8
5/28/2004 14:25 80.12 46.68 30.9
5/28/2004 14:55 79.41 48.46 33.8
5/28/2004 15:25 78.01 47.62 34.3
5/28/2004 15:55 78.01 47.62 34.3
5/28/2004 16:25 76.62 48.26 36.8
5/28/2004 16:55 75.92 47.28 36.3
5/28/2004 17:25 74.53 46.78 37.3
5/28/2004 17:55 73.15 46.26 38.3
5/28/2004 18:25 69.02 50.72 52.1
5/28/2004 18:55 66.96 50.92 56.3
5/28/2004 19:25 66.28 51.02 57.9
5/28/2004 19:55 64.91 49.24 56.8
5/28/2004 20:25 64.22 49.8 59.4
5/28/2004 20:55 62.85 50.54 64.1
5/28/2004 21:25 62.17 50.32 65.1
5/28/2004 21:55 61.48 50.48 67.1
5/28/2004 22:25 60.11 50.96 71.7
5/28/2004 22:55 59.42 51.36 74.6
5/28/2004 23:25 58.04 51.58 79
5/28/2004 23:55 57.35 51.52 80.8
5/29/2004 0:25 55.97 51.24 84.1
5/29/2004 0:55 55.28 51.14 85.9
5/29/2004 1:25 55.28 51.38 86.7
5/29/2004 1:55 54.58 51.26 88.5
5/29/2004 2:25 54.58 51.38 88.9
5/29/2004 2:55 54.58 51.1 88
5/29/2004 3:25 55.28 51.66 87.6
5/29/2004 3:55 54.58 51.1 88
5/29/2004 4:25 53.89 50.58 88.5
5/29/2004 4:55 53.19 49.74 88
5/29/2004 5:25 53.89 50.7 88.9
5/29/2004 5:55 60.11 54.66 82.2
5/29/2004 6:25 62.17 52.32 70.1
5/29/2004 6:55 64.22 51.84 64.1
5/29/2004 7:25 65.59 50.38 57.9
5/29/2004 7:55 69.02 47.62 46.4
5/29/2004 8:25 71.77 46.38 40.3
5/29/2004 8:55 73.84 45.46 36.3
5/29/2004 9:25 75.92 40.6 28.1
5/29/2004 9:55 76.62 38.9 25.7
5/29/2004 10:25 78.01 39.16 24.8
5/29/2004 10:55 78.71 35.9 21.3
5/29/2004 11:25 80.12 35.96 20.4
5/29/2004 11:55 80.12 37.06 21.3
5/29/2004 12:25 80.82 34.88 19.1
5/29/2004 12:55 82.24 36.56 19.5
5/29/2004 13:25 82.24 35.52 18.7
5/29/2004 13:55 83.67 32.46 15.8
5/29/2004 14:25 82.95 39.4 21.3
5/29/2004 14:55 82.24 39.76 22.1
5/29/2004 15:25 81.53 38.7 21.7
5/29/2004 15:55 81.53 41.18 23.9
5/29/2004 16:25 80.12 40 23.9
5/29/2004 16:55 78.01 41.06 26.7
5/29/2004 17:25 76.62 40.74 27.6
5/29/2004 17:55 74.53 41.44 30.4
5/29/2004 18:25 72.46 43.14 34.8
5/29/2004 18:55 69.71 45.18 41.3
5/29/2004 19:25 67.65 48.42 50.1
5/29/2004 19:55 65.59 48.38 53.7
5/29/2004 20:25 64.22 49.56 58.9
5/29/2004 20:55 63.54 49.6 60.4
5/29/2004 21:25 62.17 49.44 63
5/29/2004 21:55 61.48 50.08 66.1
5/29/2004 22:25 60.8 49.62 66.6
5/29/2004 22:55 60.8 50.42 68.6
5/29/2004 23:25 60.11 49.96 69.1
5/29/2004 23:55 59.42 50.1 71.2
5/30/2004 0:25 59.42 50.3 71.7
5/30/2004 0:55 58.73 49.78 72.1
5/30/2004 1:25 58.04 49.86 74.1
5/30/2004 1:55 57.35 49.18 74.1
5/30/2004 2:25 57.35 49 73.6
5/30/2004 2:55 55.97 48.88 77
5/30/2004 3:25 55.97 49.22 78
5/30/2004 3:55 55.97 49.04 77.5
5/30/2004 4:25 55.28 48.88 79
5/30/2004 4:55 54.58 48.22 79
5/30/2004 5:25 55.28 48.38 77.5
5/30/2004 5:55 62.17 53.26 72.6
5/30/2004 6:25 65.59 52.46 62.5
5/30/2004 6:55 68.33 51.4 54.7
5/30/2004 7:25 66.96 49.64 53.7
5/30/2004 7:55 71.08 48.92 45.4
5/30/2004 8:25 76.62 46.78 34.8
5/30/2004 8:55 80.82 42.06 25.3
5/30/2004 9:25 82.95 38.3 20.4
5/30/2004 9:55 85.1 36.16 17.5
5/30/2004 10:25 85.83 33.54 15.4
5/30/2004 10:55 87.28 32.14 13.9
5/30/2004 11:25 87.28 32.84 14.3
5/30/2004 11:55 87.28 34.04 15
5/30/2004 12:25 87.28 35.34 15.8
5/30/2004 12:55 87.28 37.18 17
5/30/2004 13:25 89.48 37.08 15.8
5/30/2004 13:55 89.48 38.94 17
5/30/2004 14:25 90.22 39.54 17
5/30/2004 14:55 89.48 38.34 16.6
5/30/2004 15:25 88.01 38.5 17.5
5/30/2004 15:55 88.01 36.54 16.2
5/30/2004 16:25 88.01 35.92 15.8
5/30/2004 16:55 87.28 35.96 16.2
5/30/2004 17:25 85.83 35.42 16.6
5/30/2004 17:55 85.1 35.44 17
5/30/2004 18:25 83.67 36.12 18.3
5/30/2004 18:55 82.24 36.04 19.1
5/30/2004 19:25 79.41 45.3 30
5/30/2004 19:55 77.31 46.22 33.3
5/30/2004 20:25 75.92 46.18 34.8
5/30/2004 20:55 75.22 45.56 34.8
5/30/2004 21:25 72.46 44.24 36.3
5/30/2004 21:55 72.46 45.3 37.8
5/30/2004 22:25 71.08 45.1 39.3
5/30/2004 22:55 69.71 43.2 38.3
5/30/2004 23:25 69.02 42.92 38.8
5/30/2004 23:55 68.33 43.3 40.3
5/31/2004 0:25 67.65 43.32 41.3
5/31/2004 0:55 66.28 43.08 42.9
5/31/2004 1:25 66.28 41.46 40.3
5/31/2004 1:55 65.59 40.84 40.3
5/31/2004 2:25 65.59 39.2 37.8
5/31/2004 2:55 64.22 39.94 40.8
5/31/2004 3:25 64.22 40.86 42.3
5/31/2004 3:55 64.22 37.64 37.3
5/31/2004 4:25 64.22 36.96 36.3
5/31/2004 4:55 63.54 37.38 37.8
5/31/2004 5:25 63.54 37.7 38.3
5/31/2004 5:55 72.46 40.48 31.4
5/31/2004 6:25 79.41 38.98 23.5
5/31/2004 6:55 82.24 34.42 17.9
5/31/2004 7:25 83.67 36.12 18.3
5/31/2004 7:55 86.55 35.38 16.2
5/31/2004 8:25 88.74 35.18 15
5/31/2004 8:55 90.96 34.3 13.5
5/31/2004 9:25 90.96 35.02 13.9
5/31/2004 9:55 91.71 33.34 12.7
5/31/2004 10:25 93.21 30.72 10.9
5/31/2004 10:55 93.21 30.72 10.9
5/31/2004 11:25 93.97 38.62 14.6
5/31/2004 11:55 93.97 37.38 13.9
5/31/2004 12:25 95.49 39.3 14.3
5/31/2004 12:55 93.97 39.32 15
5/31/2004 13:25 96.26 38.42 13.5
5/31/2004 13:55 97.04 37.48 12.7
5/31/2004 14:25 95.49 37.82 13.5
5/31/2004 14:55 96.26 38.42 13.5
5/31/2004 15:25 91.71 40.12 16.6
5/31/2004 15:55 91.71 40.12 16.6
5/31/2004 16:25 90.96 39.52 16.6
5/31/2004 16:55 89.48 38.34 16.6
5/31/2004 17:25 88.74 37.74 16.6
5/31/2004 17:55 87.28 35.96 16.2
5/31/2004 18:25 85.83 38.42 18.7
5/31/2004 18:55 83.67 38.88 20.4
5/31/2004 19:25 82.24 39.28 21.7
5/31/2004 19:55 80.12 39 23
5/31/2004 20:25 78.71 39.34 24.4
5/31/2004 20:55 78.01 39.16 24.8
5/31/2004 21:25 75.92 37.4 24.8
5/31/2004 21:55 75.22 37.32 25.3
5/31/2004 22:25 73.84 37.52 26.7
5/31/2004 22:55 72.46 37.64 28.1
5/31/2004 23:25 71.08 36.46 28.1
5/31/2004 23:55 71.08 36 27.6